createdAt,value
2017-04-14T00:00:29.678Z,0
2017-04-14T00:01:30.009Z,0
2017-04-14T00:02:30.360Z,0
2017-04-14T00:03:30.393Z,0
2017-04-14T00:04:29.790Z,0
2017-04-14T00:05:30.150Z,0
2017-04-14T00:06:29.831Z,0
2017-04-14T00:07:30.488Z,0
2017-04-14T00:08:30.200Z,0
2017-04-14T00:09:30.244Z,0
2017-04-14T00:10:30.582Z,0
2017-04-14T00:11:30.602Z,0
2017-04-14T00:12:30.680Z,0
2017-04-14T00:13:30.351Z,0
2017-04-14T00:14:30.696Z,0
2017-04-14T00:15:30.710Z,0
2017-04-14T00:16:30.745Z,0
2017-04-14T00:17:30.448Z,0
2017-04-14T00:18:30.728Z,0
2017-04-14T00:19:30.198Z,0
2017-04-14T00:20:30.841Z,0
2017-04-14T00:21:30.929Z,0
2017-04-14T00:22:30.904Z,0
2017-04-14T00:23:30.875Z,0
2017-04-14T00:24:30.965Z,0
2017-04-14T00:25:30.992Z,0
2017-04-14T00:26:30.699Z,0
2017-04-14T00:27:31.033Z,0
2017-04-14T00:28:31.000Z,0
2017-04-14T00:29:30.782Z,0
2017-04-14T00:30:31.109Z,0
2017-04-14T00:31:31.142Z,0
2017-04-14T00:32:30.861Z,0
2017-04-14T00:33:31.456Z,0
2017-04-14T00:34:31.232Z,0
2017-04-14T00:35:31.257Z,0
2017-04-14T00:36:30.966Z,0
2017-04-14T00:37:31.307Z,0
2017-04-14T00:38:31.279Z,0
2017-04-14T00:39:31.364Z,0
2017-04-14T00:40:31.390Z,0
2017-04-14T00:41:30.793Z,0
2017-04-14T00:42:30.814Z,0
2017-04-14T00:43:30.788Z,0
2017-04-14T00:44:31.497Z,0
2017-04-14T00:45:31.257Z,0
2017-04-14T00:46:31.557Z,0
2017-04-14T00:47:31.643Z,0
2017-04-14T00:48:31.554Z,0
2017-04-14T00:49:31.637Z,0
2017-04-14T00:50:31.669Z,0
2017-04-14T00:51:31.694Z,0
2017-04-14T00:52:31.402Z,0
2017-04-14T00:53:31.687Z,0
2017-04-14T00:54:31.775Z,0
2017-04-14T00:55:31.796Z,0
2017-04-14T00:56:31.517Z,0
2017-04-14T00:57:31.858Z,0
2017-04-14T00:58:31.823Z,0
2017-04-14T00:59:31.595Z,0
2017-04-14T01:00:31.628Z,0
2017-04-14T01:01:31.649Z,0
2017-04-14T01:02:31.995Z,0
2017-04-14T01:03:32.271Z,0
2017-04-14T01:04:32.048Z,0
2017-04-14T01:05:32.073Z,0
2017-04-14T01:06:32.105Z,0
2017-04-14T01:07:31.818Z,0
2017-04-14T01:08:32.098Z,0
2017-04-14T01:09:32.183Z,0
2017-04-14T01:10:32.203Z,0
2017-04-14T01:11:31.616Z,0
2017-04-14T01:12:32.266Z,0
2017-04-14T01:13:31.920Z,0
2017-04-14T01:14:32.008Z,0
2017-04-14T01:15:32.344Z,0
2017-04-14T01:16:32.373Z,0
2017-04-14T01:17:32.402Z,0
2017-04-14T01:18:32.362Z,0
2017-04-14T01:19:32.499Z,0
2017-04-14T01:20:31.568Z,0
2017-04-14T01:21:32.504Z,0
2017-04-14T01:22:32.536Z,0
2017-04-14T01:23:32.498Z,0
2017-04-14T01:24:32.273Z,0
2017-04-14T01:25:32.305Z,0
2017-04-14T01:26:32.637Z,0
2017-04-14T01:27:32.044Z,0
2017-04-14T01:28:32.009Z,0
2017-04-14T01:29:32.727Z,0
2017-04-14T01:30:32.439Z,0
2017-04-14T01:31:32.467Z,0
2017-04-14T01:32:32.808Z,0
2017-04-14T01:33:32.773Z,0
2017-04-14T01:34:32.541Z,0
2017-04-14T01:35:32.895Z,0
2017-04-14T01:36:32.603Z,0
2017-04-14T01:37:32.316Z,0
2017-04-14T01:38:33.217Z,0
2017-04-14T01:39:32.685Z,0
2017-04-14T01:40:33.035Z,0
2017-04-14T01:41:33.047Z,0
2017-04-14T01:42:33.133Z,0
2017-04-14T01:43:32.740Z,0
2017-04-14T01:44:33.134Z,0
2017-04-14T01:45:33.161Z,0
2017-04-14T01:46:32.878Z,0
2017-04-14T01:47:33.212Z,0
2017-04-14T01:48:32.872Z,0
2017-04-14T01:49:33.265Z,0
2017-04-14T01:50:32.665Z,0
2017-04-14T01:51:33.319Z,0
2017-04-14T01:52:33.050Z,0
2017-04-14T01:53:33.321Z,0
2017-04-14T01:54:33.401Z,0
2017-04-14T01:55:33.429Z,0
2017-04-14T01:56:33.461Z,0
2017-04-14T01:57:33.487Z,0
2017-04-14T01:58:33.209Z,0
2017-04-14T01:59:33.224Z,0
2017-04-14T02:00:33.561Z,0
2017-04-14T02:01:33.285Z,0
2017-04-14T02:02:33.623Z,0
2017-04-14T02:03:33.335Z,0
2017-04-14T02:04:33.356Z,0
2017-04-14T02:05:33.705Z,0
2017-04-14T02:06:33.722Z,0
2017-04-14T02:07:33.751Z,0
2017-04-14T02:08:33.786Z,0
2017-04-14T02:09:33.186Z,0
2017-04-14T02:10:33.217Z,0
2017-04-14T02:11:33.562Z,0
2017-04-14T02:12:33.898Z,0
2017-04-14T02:13:33.919Z,0
2017-04-14T02:14:33.578Z,0
2017-04-14T02:15:33.660Z,0
2017-04-14T02:16:33.385Z,0
2017-04-14T02:17:34.029Z,0
2017-04-14T02:18:33.746Z,0
2017-04-14T02:19:34.335Z,0
2017-04-14T02:20:34.103Z,0
2017-04-14T02:21:33.824Z,0
2017-04-14T02:22:33.858Z,0
2017-04-14T02:23:34.186Z,0
2017-04-14T02:24:33.854Z,0
2017-04-14T02:25:34.243Z,0
2017-04-14T02:26:34.272Z,0
2017-04-14T02:27:34.306Z,0
2017-04-14T02:28:34.019Z,0
2017-04-14T02:29:34.294Z,0
2017-04-14T02:30:34.068Z,0
2017-04-14T02:31:34.412Z,0
2017-04-14T02:32:34.485Z,0
2017-04-14T02:33:34.155Z,0
2017-04-14T02:34:34.428Z,0
2017-04-14T02:35:34.518Z,0
2017-04-14T02:36:34.228Z,0
2017-04-14T02:37:34.577Z,0
2017-04-14T02:38:34.294Z,0
2017-04-14T02:39:34.571Z,0
2017-04-14T02:40:34.650Z,0
2017-04-14T02:41:34.683Z,0
2017-04-14T02:42:34.390Z,0
2017-04-14T02:43:34.113Z,0
2017-04-14T02:44:34.390Z,0
2017-04-14T02:45:34.784Z,0
2017-04-14T02:46:34.500Z,0
2017-04-14T02:47:34.577Z,0
2017-04-14T02:48:34.864Z,0
2017-04-14T02:49:35.146Z,0
2017-04-14T02:50:34.615Z,0
2017-04-14T02:51:34.012Z,0
2017-04-14T02:52:34.980Z,0
2017-04-14T02:53:34.383Z,0
2017-04-14T02:54:34.974Z,0
2017-04-14T02:55:35.059Z,0
2017-04-14T02:56:35.091Z,0
2017-04-14T02:57:35.108Z,0
2017-04-14T02:58:34.521Z,0
2017-04-14T02:59:35.110Z,0
2017-04-14T03:00:35.194Z,0
2017-04-14T03:01:35.219Z,0
2017-04-14T03:02:35.248Z,0
2017-04-14T03:03:34.651Z,0
2017-04-14T03:04:35.557Z,0
2017-04-14T03:05:35.018Z,0
2017-04-14T03:06:35.051Z,0
2017-04-14T03:07:34.763Z,0
2017-04-14T03:08:35.112Z,0
2017-04-14T03:09:35.378Z,0
2017-04-14T03:10:35.464Z,0
2017-04-14T03:11:34.866Z,0
2017-04-14T03:12:35.519Z,0
2017-04-14T03:13:35.555Z,0
2017-04-14T03:14:35.832Z,0
2017-04-14T03:15:35.293Z,0
2017-04-14T03:16:35.634Z,0
2017-04-14T03:17:35.343Z,0
2017-04-14T03:18:35.680Z,0
2017-04-14T03:19:35.960Z,0
2017-04-14T03:20:35.725Z,0
2017-04-14T03:21:35.450Z,0
2017-04-14T03:22:35.780Z,0
2017-04-14T03:23:35.820Z,0
2017-04-14T03:24:36.106Z,0
2017-04-14T03:25:35.873Z,0
2017-04-14T03:26:35.889Z,0
2017-04-14T03:27:35.930Z,0
2017-04-14T03:28:35.639Z,0
2017-04-14T03:29:35.604Z,0
2017-04-14T03:30:35.702Z,0
2017-04-14T03:31:35.714Z,0
2017-04-14T03:32:35.743Z,0
2017-04-14T03:33:35.783Z,0
2017-04-14T03:34:36.055Z,0
2017-04-14T03:35:36.154Z,0
2017-04-14T03:36:36.166Z,0
2017-04-14T03:37:35.885Z,0
2017-04-14T03:38:36.232Z,0
2017-04-14T03:39:36.492Z,0
2017-04-14T03:40:35.968Z,0
2017-04-14T03:41:36.305Z,0
2017-04-14T03:42:36.027Z,0
2017-04-14T03:43:36.057Z,0
2017-04-14T03:44:35.759Z,0
2017-04-14T03:45:36.412Z,0
2017-04-14T03:46:36.140Z,0
2017-04-14T03:47:36.470Z,0
2017-04-14T03:48:35.871Z,0
2017-04-14T03:49:36.215Z,0
2017-04-14T03:50:36.240Z,0
2017-04-14T03:51:35.954Z,0
2017-04-14T03:52:36.285Z,0
2017-04-14T03:53:36.319Z,0
2017-04-14T03:54:36.655Z,0
2017-04-14T03:55:36.380Z,0
2017-04-14T03:56:36.444Z,0
2017-04-14T03:57:36.741Z,0
2017-04-14T03:58:36.451Z,0
2017-04-14T03:59:36.791Z,0
2017-04-14T04:00:36.516Z,0
2017-04-14T04:01:36.855Z,0
2017-04-14T04:02:36.560Z,0
2017-04-14T04:03:36.594Z,0
2017-04-14T04:04:36.932Z,0
2017-04-14T04:05:36.644Z,0
2017-04-14T04:06:36.664Z,0
2017-04-14T04:07:37.005Z,0
2017-04-14T04:08:37.031Z,0
2017-04-14T04:09:37.060Z,0
2017-04-14T04:10:37.088Z,0
2017-04-14T04:11:36.487Z,0
2017-04-14T04:12:36.524Z,0
2017-04-14T04:13:36.537Z,0
2017-04-14T04:14:37.198Z,0
2017-04-14T04:15:37.239Z,0
2017-04-14T04:16:36.636Z,0
2017-04-14T04:17:37.268Z,0
2017-04-14T04:18:37.313Z,0
2017-04-14T04:19:37.322Z,0
2017-04-14T04:20:37.046Z,0
2017-04-14T04:21:37.075Z,0
2017-04-14T04:22:37.104Z,0
2017-04-14T04:23:37.433Z,0
2017-04-14T04:24:37.145Z,4
2017-04-14T04:25:37.502Z,4
2017-04-14T04:26:36.944Z,4
2017-04-14T04:27:37.548Z,0
2017-04-14T04:28:37.261Z,4
2017-04-14T04:29:37.601Z,4
2017-04-14T04:30:37.314Z,8
2017-04-14T04:31:37.343Z,4
2017-04-14T04:32:37.721Z,8
2017-04-14T04:33:37.410Z,8
2017-04-14T04:34:37.731Z,8
2017-04-14T04:35:37.705Z,8
2017-04-14T04:36:37.478Z,12
2017-04-14T04:37:37.815Z,12
2017-04-14T04:38:37.841Z,16
2017-04-14T04:39:37.568Z,16
2017-04-14T04:40:37.842Z,20
2017-04-14T04:41:37.615Z,20
2017-04-14T04:42:37.331Z,20
2017-04-14T04:43:37.668Z,24
2017-04-14T04:44:37.705Z,28
2017-04-14T04:45:38.289Z,32
2017-04-14T04:46:37.750Z,36
2017-04-14T04:47:37.780Z,36
2017-04-14T04:48:37.803Z,40
2017-04-14T04:49:38.137Z,48
2017-04-14T04:50:38.429Z,52
2017-04-14T04:51:38.195Z,52
2017-04-14T04:52:37.906Z,60
2017-04-14T04:53:37.948Z,64
2017-04-14T04:54:37.965Z,68
2017-04-14T04:55:38.241Z,76
2017-04-14T04:56:38.338Z,76
2017-04-14T04:57:38.046Z,80
2017-04-14T04:58:37.764Z,80
2017-04-14T04:59:37.783Z,76
2017-04-14T05:00:38.692Z,76
2017-04-14T05:01:38.462Z,84
2017-04-14T05:02:38.499Z,88
2017-04-14T05:03:38.208Z,92
2017-04-14T05:04:38.236Z,100
2017-04-14T05:05:38.509Z,104
2017-04-14T05:06:38.605Z,108
2017-04-14T05:07:38.630Z,116
2017-04-14T05:08:38.659Z,124
2017-04-14T05:09:38.680Z,128
2017-04-14T05:10:39.002Z,132
2017-04-14T05:11:38.738Z,140
2017-04-14T05:12:38.767Z,148
2017-04-14T05:13:38.795Z,144
2017-04-14T05:14:38.816Z,148
2017-04-14T05:15:38.792Z,148
2017-04-14T05:16:38.253Z,152
2017-04-14T05:17:38.898Z,156
2017-04-14T05:18:38.926Z,164
2017-04-14T05:19:38.952Z,180
2017-04-14T05:20:38.912Z,188
2017-04-14T05:21:38.697Z,204
2017-04-14T05:22:39.035Z,216
2017-04-14T05:23:39.053Z,220
2017-04-14T05:24:38.776Z,220
2017-04-14T05:25:39.060Z,220
2017-04-14T05:26:39.148Z,228
2017-04-14T05:27:39.173Z,240
2017-04-14T05:28:39.209Z,252
2017-04-14T05:29:39.217Z,268
2017-04-14T05:30:39.491Z,280
2017-04-14T05:31:39.268Z,288
2017-04-14T05:32:39.306Z,296
2017-04-14T05:33:39.030Z,304
2017-04-14T05:34:39.046Z,308
2017-04-14T05:35:39.332Z,316
2017-04-14T05:36:39.411Z,328
2017-04-14T05:37:39.131Z,336
2017-04-14T05:38:39.159Z,348
2017-04-14T05:39:39.503Z,356
2017-04-14T05:40:39.765Z,364
2017-04-14T05:41:39.236Z,376
2017-04-14T05:42:39.274Z,392
2017-04-14T05:43:39.303Z,408
2017-04-14T05:44:39.011Z,436
2017-04-14T05:45:39.595Z,448
2017-04-14T05:46:39.680Z,456
2017-04-14T05:47:39.095Z,444
2017-04-14T05:48:39.123Z,444
2017-04-14T05:49:39.459Z,444
2017-04-14T05:50:39.729Z,464
2017-04-14T05:51:39.509Z,472
2017-04-14T05:52:38.921Z,476
2017-04-14T05:53:39.570Z,496
2017-04-14T05:54:39.583Z,520
2017-04-14T05:55:39.876Z,536
2017-04-14T05:56:39.660Z,536
2017-04-14T05:57:40.005Z,540
2017-04-14T05:58:39.740Z,532
2017-04-14T05:59:40.042Z,552
2017-04-14T06:00:40.318Z,560
2017-04-14T06:01:40.091Z,568
2017-04-14T06:02:40.122Z,588
2017-04-14T06:03:40.150Z,608
2017-04-14T06:04:39.863Z,632
2017-04-14T06:05:40.208Z,648
2017-04-14T06:06:39.925Z,668
2017-04-14T06:07:39.949Z,684
2017-04-14T06:08:39.666Z,712
2017-04-14T06:09:40.011Z,728
2017-04-14T06:10:40.030Z,744
2017-04-14T06:11:40.311Z,784
2017-04-14T06:12:39.779Z,824
2017-04-14T06:13:40.108Z,864
2017-04-14T06:14:40.142Z,892
2017-04-14T06:15:40.476Z,936
2017-04-14T06:16:40.443Z,924
2017-04-14T06:17:40.540Z,924
2017-04-14T06:18:40.569Z,928
2017-04-14T06:19:40.281Z,960
2017-04-14T06:20:40.000Z,1000
2017-04-14T06:21:40.883Z,1024
2017-04-14T06:22:40.677Z,1020
2017-04-14T06:23:40.715Z,1008
2017-04-14T06:24:40.729Z,984
2017-04-14T06:25:40.125Z,984
2017-04-14T06:26:40.715Z,940
2017-04-14T06:27:40.869Z,944
2017-04-14T06:28:40.527Z,956
2017-04-14T06:29:40.861Z,980
2017-04-14T06:30:40.590Z,1020
2017-04-14T06:31:41.171Z,980
2017-04-14T06:32:40.957Z,892
2017-04-14T06:33:40.360Z,784
2017-04-14T06:34:41.005Z,808
2017-04-14T06:35:41.033Z,928
2017-04-14T06:36:41.003Z,1012
2017-04-14T06:37:41.082Z,1140
2017-04-14T06:38:41.121Z,1200
2017-04-14T06:39:41.141Z,1308
2017-04-14T06:40:41.169Z,1328
2017-04-14T06:41:41.450Z,1252
2017-04-14T06:42:40.915Z,1160
2017-04-14T06:43:41.271Z,1052
2017-04-14T06:44:40.969Z,1008
2017-04-14T06:45:40.985Z,1092
2017-04-14T06:46:41.271Z,1172
2017-04-14T06:47:41.042Z,1136
2017-04-14T06:48:41.080Z,1184
2017-04-14T06:49:41.425Z,1224
2017-04-14T06:50:41.128Z,1156
2017-04-14T06:51:41.762Z,1092
2017-04-14T06:52:41.195Z,928
2017-04-14T06:53:41.209Z,792
2017-04-14T06:54:40.932Z,788
2017-04-14T06:55:41.583Z,788
2017-04-14T06:56:41.557Z,772
2017-04-14T06:57:41.321Z,728
2017-04-14T06:58:41.672Z,728
2017-04-14T06:59:41.697Z,740
2017-04-14T07:00:41.713Z,792
2017-04-14T07:01:41.997Z,788
2017-04-14T07:02:41.774Z,772
2017-04-14T07:03:41.800Z,768
2017-04-14T07:04:41.519Z,776
2017-04-14T07:05:41.242Z,788
2017-04-14T07:06:41.509Z,780
2017-04-14T07:07:41.602Z,776
2017-04-14T07:08:41.943Z,784
2017-04-14T07:09:41.352Z,832
2017-04-14T07:10:41.681Z,936
2017-04-14T07:11:42.272Z,1112
2017-04-14T07:12:41.755Z,1352
2017-04-14T07:13:41.774Z,1632
2017-04-14T07:14:41.795Z,1780
2017-04-14T07:15:41.512Z,1784
2017-04-14T07:16:42.100Z,1676
2017-04-14T07:17:41.888Z,1616
2017-04-14T07:18:41.592Z,1448
2017-04-14T07:19:41.930Z,1340
2017-04-14T07:20:42.288Z,1248
2017-04-14T07:21:41.920Z,1264
2017-04-14T07:22:42.014Z,1336
2017-04-14T07:23:42.358Z,1548
2017-04-14T07:24:42.383Z,1744
2017-04-14T07:25:42.140Z,1868
2017-04-14T07:26:42.427Z,1972
2017-04-14T07:27:42.474Z,1956
2017-04-14T07:28:42.190Z,2008
2017-04-14T07:29:42.213Z,2036
2017-04-14T07:30:42.238Z,1984
2017-04-14T07:31:42.827Z,1908
2017-04-14T07:32:42.601Z,1860
2017-04-14T07:33:42.634Z,1804
2017-04-14T07:34:42.666Z,1668
2017-04-14T07:35:42.691Z,1440
2017-04-14T07:36:42.660Z,1204
2017-04-14T07:37:42.469Z,1088
2017-04-14T07:38:42.773Z,972
2017-04-14T07:39:42.476Z,956
2017-04-14T07:40:42.828Z,952
2017-04-14T07:41:41.909Z,1008
2017-04-14T07:42:42.880Z,1108
2017-04-14T07:43:42.917Z,1204
2017-04-14T07:44:42.630Z,1308
2017-04-14T07:45:42.666Z,1308
2017-04-14T07:46:42.996Z,1316
2017-04-14T07:47:42.721Z,1380
2017-04-14T07:48:43.079Z,1368
2017-04-14T07:49:42.465Z,1476
2017-04-14T07:50:43.119Z,1532
2017-04-14T07:51:42.820Z,1980
2017-04-14T07:52:43.111Z,2320
2017-04-14T07:53:43.184Z,1752
2017-04-14T07:54:43.223Z,2232
2017-04-14T07:55:42.935Z,2184
2017-04-14T07:56:43.270Z,1764
2017-04-14T07:57:43.552Z,1420
2017-04-14T07:58:43.017Z,1216
2017-04-14T07:59:43.358Z,1232
2017-04-14T08:00:43.382Z,2940
2017-04-14T08:01:43.408Z,1128
2017-04-14T08:02:43.380Z,1868
2017-04-14T08:03:42.844Z,1568
2017-04-14T08:04:43.490Z,1760
2017-04-14T08:05:43.521Z,2040
2017-04-14T08:06:43.242Z,1812
2017-04-14T08:07:43.830Z,1648
2017-04-14T08:08:43.300Z,1656
2017-04-14T08:09:43.321Z,1644
2017-04-14T08:10:43.338Z,1796
2017-04-14T08:11:43.066Z,1944
2017-04-14T08:12:43.659Z,2044
2017-04-14T08:13:43.749Z,1984
2017-04-14T08:14:42.837Z,2224
2017-04-14T08:15:43.477Z,2240
2017-04-14T08:16:43.828Z,2000
2017-04-14T08:17:43.799Z,1696
2017-04-14T08:18:43.888Z,1428
2017-04-14T08:19:43.918Z,1320
2017-04-14T08:20:43.626Z,1276
2017-04-14T08:21:43.346Z,1256
2017-04-14T08:22:44.256Z,1236
2017-04-14T08:23:44.049Z,1228
2017-04-14T08:24:44.037Z,1228
2017-04-14T08:25:44.081Z,1216
2017-04-14T08:26:44.114Z,1108
2017-04-14T08:27:44.404Z,1120
2017-04-14T08:28:44.184Z,1236
2017-04-14T08:29:43.882Z,1288
2017-04-14T08:30:44.213Z,1316
2017-04-14T08:31:43.958Z,1336
2017-04-14T08:32:44.215Z,1376
2017-04-14T08:33:44.308Z,1412
2017-04-14T08:34:44.328Z,1436
2017-04-14T08:35:44.034Z,1448
2017-04-14T08:36:44.086Z,1380
2017-04-14T08:37:44.359Z,1460
2017-04-14T08:38:44.136Z,1568
2017-04-14T08:39:44.484Z,1700
2017-04-14T08:40:44.493Z,1612
2017-04-14T08:41:44.223Z,1576
2017-04-14T08:42:44.495Z,1996
2017-04-14T08:43:43.965Z,2608
2017-04-14T08:44:43.992Z,2652
2017-04-14T08:45:44.017Z,2660
2017-04-14T08:46:44.357Z,2848
2017-04-14T08:47:44.948Z,3000
2017-04-14T08:48:44.726Z,2692
2017-04-14T08:49:44.439Z,2796
2017-04-14T08:50:44.785Z,2976
2017-04-14T08:51:44.190Z,3316
2017-04-14T08:52:44.769Z,3320
2017-04-14T08:53:44.868Z,3188
2017-04-14T08:54:44.890Z,2884
2017-04-14T08:55:44.921Z,2456
2017-04-14T08:56:44.943Z,2448
2017-04-14T08:57:44.357Z,2340
2017-04-14T08:58:45.007Z,2400
2017-04-14T08:59:45.030Z,2460
2017-04-14T09:00:44.800Z,2608
2017-04-14T09:01:45.088Z,2716
2017-04-14T09:02:45.122Z,2512
2017-04-14T09:03:45.141Z,2612
2017-04-14T09:04:45.175Z,2696
2017-04-14T09:05:45.199Z,2152
2017-04-14T09:06:44.921Z,1696
2017-04-14T09:07:44.946Z,1572
2017-04-14T09:08:45.287Z,1796
2017-04-14T09:09:45.307Z,1672
2017-04-14T09:10:45.336Z,1976
2017-04-14T09:11:45.393Z,2112
2017-04-14T09:12:44.776Z,2184
2017-04-14T09:13:45.388Z,2160
2017-04-14T09:14:45.139Z,2140
2017-04-14T09:15:45.503Z,2056
2017-04-14T09:16:45.201Z,1900
2017-04-14T09:17:45.552Z,1972
2017-04-14T09:18:45.824Z,2028
2017-04-14T09:19:44.970Z,1936
2017-04-14T09:20:45.311Z,1700
2017-04-14T09:21:45.341Z,1972
2017-04-14T09:22:45.678Z,2144
2017-04-14T09:23:45.350Z,2388
2017-04-14T09:24:45.105Z,2580
2017-04-14T09:25:45.143Z,2644
2017-04-14T09:26:45.487Z,2180
2017-04-14T09:27:45.832Z,1956
2017-04-14T09:28:46.098Z,1852
2017-04-14T09:29:45.570Z,1928
2017-04-14T09:30:45.599Z,2352
2017-04-14T09:31:45.931Z,2232
2017-04-14T09:32:45.968Z,2152
2017-04-14T09:33:45.938Z,2028
2017-04-14T09:34:45.697Z,2308
2017-04-14T09:35:45.721Z,2528
2017-04-14T09:36:45.767Z,2520
2017-04-14T09:37:45.792Z,2428
2017-04-14T09:38:46.394Z,2152
2017-04-14T09:39:46.174Z,1968
2017-04-14T09:40:46.190Z,1936
2017-04-14T09:41:45.899Z,1964
2017-04-14T09:42:45.928Z,2036
2017-04-14T09:43:46.516Z,2136
2017-04-14T09:44:46.298Z,2272
2017-04-14T09:45:46.337Z,2416
2017-04-14T09:46:46.355Z,2228
2017-04-14T09:47:46.385Z,2148
2017-04-14T09:48:46.363Z,2128
2017-04-14T09:49:46.129Z,2052
2017-04-14T09:50:46.474Z,2020
2017-04-14T09:51:46.494Z,2080
2017-04-14T09:52:46.535Z,2124
2017-04-14T09:53:46.801Z,2048
2017-04-14T09:54:45.966Z,2048
2017-04-14T09:55:46.613Z,2012
2017-04-14T09:56:46.337Z,1996
2017-04-14T09:57:46.360Z,2104
2017-04-14T09:58:46.632Z,2392
2017-04-14T09:59:46.413Z,2652
2017-04-14T10:00:46.749Z,2884
2017-04-14T10:01:46.471Z,3024
2017-04-14T10:02:46.507Z,2828
2017-04-14T10:03:46.780Z,2424
2017-04-14T10:04:46.865Z,2004
2017-04-14T10:05:46.893Z,2228
2017-04-14T10:06:46.926Z,2484
2017-04-14T10:07:46.948Z,2796
2017-04-14T10:08:46.924Z,2936
2017-04-14T10:09:47.052Z,2256
2017-04-14T10:10:46.729Z,2588
2017-04-14T10:11:47.062Z,2016
2017-04-14T10:12:47.091Z,1868
2017-04-14T10:13:47.054Z,2112
2017-04-14T10:14:47.149Z,2384
2017-04-14T10:15:47.220Z,2236
2017-04-14T10:16:46.899Z,2308
2017-04-14T10:17:46.604Z,2596
2017-04-14T10:18:47.250Z,2408
2017-04-14T10:19:47.291Z,2392
2017-04-14T10:20:47.320Z,2516
2017-04-14T10:21:47.338Z,2544
2017-04-14T10:22:47.370Z,2616
2017-04-14T10:23:47.690Z,2760
2017-04-14T10:24:47.123Z,2808
2017-04-14T10:25:47.453Z,2960
2017-04-14T10:26:47.496Z,3284
2017-04-14T10:27:47.511Z,3364
2017-04-14T10:28:47.859Z,3328
2017-04-14T10:29:47.572Z,3256
2017-04-14T10:30:47.302Z,3140
2017-04-14T10:31:47.320Z,3224
2017-04-14T10:32:47.653Z,3444
2017-04-14T10:33:47.061Z,3236
2017-04-14T10:34:47.403Z,2928
2017-04-14T10:35:47.112Z,2932
2017-04-14T10:36:47.461Z,2996
2017-04-14T10:37:47.795Z,3064
2017-04-14T10:38:47.522Z,3128
2017-04-14T10:39:47.852Z,3268
2017-04-14T10:40:47.568Z,3448
2017-04-14T10:41:47.913Z,3260
2017-04-14T10:42:47.624Z,3452
2017-04-14T10:43:47.659Z,3440
2017-04-14T10:44:47.687Z,3588
2017-04-14T10:45:47.711Z,3516
2017-04-14T10:46:48.055Z,3408
2017-04-14T10:47:48.077Z,3452
2017-04-14T10:48:47.798Z,3080
2017-04-14T10:49:48.138Z,3772
2017-04-14T10:50:48.157Z,4160
2017-04-14T10:51:48.191Z,4352
2017-04-14T10:52:47.899Z,4196
2017-04-14T10:53:47.934Z,3896
2017-04-14T10:54:48.521Z,2904
2017-04-14T10:55:47.982Z,2856
2017-04-14T10:56:48.019Z,3192
2017-04-14T10:57:48.055Z,3432
2017-04-14T10:58:48.393Z,3576
2017-04-14T10:59:48.662Z,3304
2017-04-14T11:00:48.134Z,3200
2017-04-14T11:01:48.468Z,3524
2017-04-14T11:02:48.245Z,4316
2017-04-14T11:03:47.905Z,4396
2017-04-14T11:04:48.809Z,4612
2017-04-14T11:05:47.966Z,4748
2017-04-14T11:06:48.611Z,4872
2017-04-14T11:07:48.324Z,5044
2017-04-14T11:08:48.054Z,5484
2017-04-14T11:09:48.323Z,5636
2017-04-14T11:10:48.735Z,5496
2017-04-14T11:11:48.437Z,5984
2017-04-14T11:12:48.799Z,4872
2017-04-14T11:13:48.206Z,3732
2017-04-14T11:14:48.809Z,3844
2017-04-14T11:15:48.248Z,4328
2017-04-14T11:16:48.899Z,6576
2017-04-14T11:17:48.307Z,5688
2017-04-14T11:18:48.961Z,6536
2017-04-14T11:19:48.917Z,8416
2017-04-14T11:20:48.698Z,8596
2017-04-14T11:21:49.055Z,6844
2017-04-14T11:22:49.076Z,7636
2017-04-14T11:23:48.788Z,5012
2017-04-14T11:24:49.072Z,6456
2017-04-14T11:25:49.154Z,4424
2017-04-14T11:26:48.877Z,4788
2017-04-14T11:27:48.599Z,7312
2017-04-14T11:28:49.246Z,7840
2017-04-14T11:29:49.524Z,8560
2017-04-14T11:30:48.985Z,7616
2017-04-14T11:31:49.025Z,7420
2017-04-14T11:32:48.740Z,8936
2017-04-14T11:33:48.774Z,8312
2017-04-14T11:34:49.048Z,6400
2017-04-14T11:35:49.453Z,5664
2017-04-14T11:36:49.485Z,4716
2017-04-14T11:37:49.502Z,3900
2017-04-14T11:38:49.223Z,3320
2017-04-14T11:39:49.808Z,3396
2017-04-14T11:40:49.276Z,3900
2017-04-14T11:41:49.305Z,4740
2017-04-14T11:42:49.654Z,5780
2017-04-14T11:43:49.380Z,9500
2017-04-14T11:44:49.952Z,9632
2017-04-14T11:45:49.740Z,8564
2017-04-14T11:46:49.137Z,8664
2017-04-14T11:47:49.481Z,8992
2017-04-14T11:48:49.819Z,10112
2017-04-14T11:49:50.107Z,9808
2017-04-14T11:50:49.569Z,7344
2017-04-14T11:51:49.906Z,8448
2017-04-14T11:52:49.938Z,5112
2017-04-14T11:53:49.967Z,5348
2017-04-14T11:54:50.255Z,5468
2017-04-14T11:55:49.712Z,8316
2017-04-14T11:56:49.749Z,3592
2017-04-14T11:57:50.087Z,4192
2017-04-14T11:58:50.107Z,5404
2017-04-14T11:59:50.390Z,6724
2017-04-14T12:00:50.172Z,8408
2017-04-14T12:01:50.201Z,11028
2017-04-14T12:02:49.639Z,6156
2017-04-14T12:03:50.267Z,5680
2017-04-14T12:04:50.227Z,6036
2017-04-14T12:05:50.319Z,7408
2017-04-14T12:06:50.341Z,8044
2017-04-14T12:07:49.441Z,12404
2017-04-14T12:08:50.115Z,7636
2017-04-14T12:09:50.062Z,8528
2017-04-14T12:10:49.844Z,6460
2017-04-14T12:11:50.498Z,8712
2017-04-14T12:12:50.218Z,15140
2017-04-14T12:13:49.930Z,11132
2017-04-14T12:14:50.526Z,7572
2017-04-14T12:15:49.983Z,7856
2017-04-14T12:16:50.644Z,37344
2017-04-14T12:17:50.350Z,50016
2017-04-14T12:18:50.703Z,56544
2017-04-14T12:19:50.418Z,8352
2017-04-14T12:20:50.763Z,22272
2017-04-14T12:21:50.794Z,54976
2017-04-14T12:22:50.820Z,33568
2017-04-14T12:23:50.258Z,9068
2017-04-14T12:24:50.567Z,8240
2017-04-14T12:25:50.905Z,5816
2017-04-14T12:26:50.939Z,5152
2017-04-14T12:27:50.336Z,5436
2017-04-14T12:28:50.381Z,5988
2017-04-14T12:29:51.028Z,8408
2017-04-14T12:30:51.059Z,6480
2017-04-14T12:31:50.775Z,5076
2017-04-14T12:32:51.133Z,4756
2017-04-14T12:33:51.154Z,4012
2017-04-14T12:34:51.182Z,3148
2017-04-14T12:35:50.898Z,2916
2017-04-14T12:36:51.243Z,3004
2017-04-14T12:37:51.309Z,3092
2017-04-14T12:38:50.744Z,3284
2017-04-14T12:39:50.709Z,3712
2017-04-14T12:40:51.614Z,4400
2017-04-14T12:41:50.763Z,4964
2017-04-14T12:42:51.428Z,5856
2017-04-14T12:43:51.453Z,6844
2017-04-14T12:44:51.477Z,9508
2017-04-14T12:45:51.131Z,17856
2017-04-14T12:46:51.228Z,7616
2017-04-14T12:47:51.571Z,5788
2017-04-14T12:48:51.285Z,6664
2017-04-14T12:49:51.629Z,9124
2017-04-14T12:50:51.904Z,39040
2017-04-14T12:51:51.730Z,7848
2017-04-14T12:52:51.407Z,9628
2017-04-14T12:53:51.752Z,6600
2017-04-14T12:54:51.465Z,4208
2017-04-14T12:55:51.746Z,3588
2017-04-14T12:56:51.514Z,3060
2017-04-14T12:57:51.870Z,2612
2017-04-14T12:58:51.897Z,2364
2017-04-14T12:59:51.608Z,2312
2017-04-14T13:00:51.894Z,2376
2017-04-14T13:01:51.670Z,2488
2017-04-14T13:02:52.008Z,2616
2017-04-14T13:03:51.444Z,2416
2017-04-14T13:04:51.768Z,2280
2017-04-14T13:05:51.731Z,2284
2017-04-14T13:06:51.822Z,2108
2017-04-14T13:07:51.538Z,2324
2017-04-14T13:08:51.895Z,3116
2017-04-14T13:09:51.912Z,4260
2017-04-14T13:10:52.502Z,5520
2017-04-14T13:11:52.274Z,5808
2017-04-14T13:12:52.308Z,4664
2017-04-14T13:13:51.716Z,4532
2017-04-14T13:14:52.368Z,5064
2017-04-14T13:15:52.337Z,5528
2017-04-14T13:16:51.805Z,6020
2017-04-14T13:17:52.451Z,6932
2017-04-14T13:18:52.492Z,8020
2017-04-14T13:19:52.511Z,6780
2017-04-14T13:20:52.485Z,6084
2017-04-14T13:21:52.574Z,5320
2017-04-14T13:22:52.307Z,4832
2017-04-14T13:23:52.636Z,5084
2017-04-14T13:24:52.656Z,5556
2017-04-14T13:25:52.937Z,5728
2017-04-14T13:26:52.405Z,8008
2017-04-14T13:27:52.746Z,27360
2017-04-14T13:28:52.467Z,7652
2017-04-14T13:29:52.184Z,7256
2017-04-14T13:30:53.084Z,5364
2017-04-14T13:31:52.866Z,4792
2017-04-14T13:32:52.942Z,4016
2017-04-14T13:33:52.860Z,3740
2017-04-14T13:34:52.695Z,4088
2017-04-14T13:35:52.921Z,7948
2017-04-14T13:36:52.999Z,5120
2017-04-14T13:37:52.734Z,4788
2017-04-14T13:38:53.068Z,5372
2017-04-14T13:39:53.092Z,8232
2017-04-14T13:40:53.052Z,42048
2017-04-14T13:41:53.161Z,50752
2017-04-14T13:42:53.191Z,52288
2017-04-14T13:43:52.902Z,38368
2017-04-14T13:44:53.243Z,53376
2017-04-14T13:45:53.532Z,60128
2017-04-14T13:46:52.982Z,69312
2017-04-14T13:47:53.342Z,70912
2017-04-14T13:48:53.347Z,69376
2017-04-14T13:49:53.400Z,62528
2017-04-14T13:50:53.044Z,70240